Portada
METAR-TAF:

METAR-TAF

Aeroports :

Ürümqi, Xina

latitud: 43-54N, longitud: 087-28E, altitud: 654 m

Observació

L'informe es va fer fa 37 minuts, a les 21:30 UTC
Vent 10 kt del Sud
Temperatura 21°C
Humitat 30%
Pressió 1022 hPa
Visibilitat 10 km o més
sense núvols per sota de 1500 mi sense presència de cumulonimbus.

METAR: ZWWW 252130Z 17005MPS CAVOK 21/03 Q1022 NOSIG

Hora: 04:07 (22:07 UTC)

Pronòstic

L'informe es va fer fa 7 hores i 5 minuts, a les 15:02 UTC
Pronòstic vàlid del 25 a les 18 UTC al 26 a les 18 UTC
Vent 8 kt del Sud
Visibilitat 10 km o més
sense núvols per sota de 1500 mi sense presència de cumulonimbus.
Evolucionant progressivament
l' 26 a les 03 UTC al 26 a les 04 UTC
Vent 8 kt del Nord
Evolucionant progressivament
l' 26 a les 13 UTC al 26 a les 14 UTC
Vent 8 kt del Sud

TAF: ZWWW 251502Z 2518/2618 18004MPS CAVOK TX33/2609Z TN23/2523Z BECMG 2603/2604 36004MPS BECMG 2613/2614 18004MPS

Observacions i pronòstics meteorològics de més de 4000 aeroports (METAR i TAF).

Les estacions disponibles són els punts grocs i vermells al mapa.

Posi el ratolí al punt desitjat per veure el nom de l'estació.

Feu clic per veure les observacions i els pronòstics meteorològics.

Per canviar el mapa: feu clic els botons verds amb una creu de color negre per apropar; al botó verd amb un guió per allunyar la imatge; o en les fletxes verdes per a mapes adjacents.


METAR-TAF: